Time;durP1;ratioP1;P1;durP2;ratioP2;P2;SDS_P1;SDS_P2;PMS_P1;PMS_P2;Temp;Humidity;BMP_temperature;BMP_pressure;BME280_temperature;BME280_humidity;BME280_pressure;Samples;Min_cycle;Max_cycle;Signal;HPM_P1;HPM_P2
2022/05/06 00:00:28;;;;;;;25.40;16.27;;;;;;;17.17;53.40;102428.03;5069955;28;20103;-68
2022/05/06 00:02:56;;;;;;;27.05;16.45;;;;;;;17.13;53.28;102426.00;5074187;28;20061;-68
2022/05/06 00:05:25;;;;;;;22.92;15.52;;;;;;;17.10;53.51;102432.69;5078330;28;20079;-69
2022/05/06 00:07:53;;;;;;;25.10;16.20;;;;;;;17.09;53.32;102432.94;5064230;28;20084;-67
2022/05/06 00:10:21;;;;;;;26.30;15.88;;;;;;;17.08;53.30;102431.28;5077754;28;20057;-68
2022/05/06 00:12:49;;;;;;;20.98;15.02;;;;;;;17.07;53.25;102429.63;5077733;28;20063;-68
2022/05/06 00:15:16;;;;;;;22.25;15.90;;;;;;;17.06;53.37;102433.38;5073033;28;20305;-68
2022/05/06 00:17:44;;;;;;;20.55;14.77;;;;;;;17.05;53.11;102429.00;5071536;28;20569;-68
2022/05/06 00:20:12;;;;;;;21.77;14.27;;;;;;;17.02;52.95;102421.31;5072855;28;20044;-68
2022/05/06 00:22:43;;;;;;;20.63;14.50;;;;;;;17.04;53.11;102430.06;5075349;28;20036;-68
2022/05/06 00:25:11;;;;;;;23.67;14.48;;;;;;;17.03;52.93;102439.25;5082191;28;20057;-68
2022/05/06 00:27:40;;;;;;;23.17;16.23;;;;;;;17.00;53.27;102437.84;5074145;28;20067;-68
2022/05/06 00:30:10;;;;;;;23.73;14.90;;;;;;;16.98;53.54;102430.97;5079817;28;20605;-68
2022/05/06 00:32:37;;;;;;;22.63;14.07;;;;;;;16.95;53.41;102434.97;5082786;28;20045;-68
2022/05/06 00:35:06;;;;;;;24.08;14.73;;;;;;;16.92;53.32;102438.97;5077005;28;20100;-68
2022/05/06 00:37:34;;;;;;;21.88;14.68;;;;;;;16.90;53.35;102437.53;5080189;28;20040;-68
2022/05/06 00:40:04;;;;;;;22.02;14.98;;;;;;;16.87;53.24;102435.25;5079012;28;20148;-68
2022/05/06 00:42:32;;;;;;;27.15;15.38;;;;;;;16.87;53.30;102435.25;5082439;28;20063;-68
2022/05/06 00:45:01;;;;;;;22.45;13.98;;;;;;;16.86;53.31;102436.31;5079554;28;20040;-68
2022/05/06 00:47:29;;;;;;;20.88;14.32;;;;;;;16.82;53.09;102433.22;5082213;28;20079;-68
2022/05/06 00:49:57;;;;;;;21.75;15.02;;;;;;;16.84;53.34;102430.28;5079284;28;20076;-68
2022/05/06 00:52:25;;;;;;;24.77;15.65;;;;;;;16.80;53.33;102431.78;5075015;28;20145;-68
2022/05/06 00:54:53;;;;;;;25.45;15.35;;;;;;;16.78;53.61;102431.19;5073147;28;20067;-68
2022/05/06 00:57:23;;;;;;;23.27;16.15;;;;;;;16.76;53.96;102433.28;5071350;28;20051;-68
2022/05/06 01:02:37;;;;;;;24.98;15.77;;;;;;;16.70;53.85;102439.59;5063309;28;20100;-69
2022/05/06 01:05:09;;;;;;;23.75;16.38;;;;;;;16.55;53.79;102410.91;5070229;28;20048;-72
2022/05/06 01:07:38;;;;;;;22.83;15.15;;;;;;;16.66;53.80;102432.97;5077011;28;20405;-73
2022/05/06 01:10:07;;;;;;;20.88;15.35;;;;;;;16.62;53.87;102431.72;5077116;28;20048;-73
2022/05/06 01:12:36;;;;;;;23.92;15.55;;;;;;;16.63;53.85;102430.66;5067599;28;20410;-72
2022/05/06 01:15:17;;;;;;;23.73;16.27;;;;;;;16.60;53.73;102438.19;5078568;28;20052;-72
2022/05/06 01:17:45;;;;;;;22.92;15.45;;;;;;;16.60;53.45;102440.09;5071421;28;20132;-72
2022/05/06 01:20:15;;;;;;;23.73;15.60;;;;;;;16.58;53.58;102443.03;5076193;28;20087;-72
2022/05/06 01:22:46;;;;;;;20.90;14.90;;;;;;;16.56;53.79;102436.16;5073907;28;20112;-71
2022/05/06 01:25:15;;;;;;;23.85;15.50;;;;;;;16.56;53.93;102438.88;5081411;28;20040;-72
2022/05/06 01:27:47;;;;;;;22.15;14.82;;;;;;;16.52;53.64;102435.78;5074778;28;20085;-72
2022/05/06 01:30:30;;;;;;;21.70;15.55;;;;;;;16.52;53.82;102441.19;5075311;28;20279;-67
2022/05/06 01:33:00;;;;;;;22.92;15.98;;;;;;;16.50;53.83;102437.03;5069112;28;20076;-67
2022/05/06 01:35:29;;;;;;;24.25;16.17;;;;;;;16.49;53.93;102443.53;5073891;28;20131;-67
2022/05/06 01:38:01;;;;;;;23.63;16.77;;;;;;;16.46;54.04;102444.81;5080563;28;20090;-67
2022/05/06 01:40:34;;;;;;;24.42;16.67;;;;;;;16.45;53.84;102439.59;5076849;28;20049;-67
2022/05/06 01:43:03;;;;;;;23.27;16.52;;;;;;;16.43;53.86;102439.00;5083374;28;20045;-67
2022/05/06 01:45:36;;;;;;;22.52;14.88;;;;;;;16.41;53.92;102436.50;5067820;28;20076;-67
2022/05/06 01:48:05;;;;;;;25.40;16.42;;;;;;;16.41;53.66;102435.66;5073796;28;20044;-68
2022/05/06 01:50:36;;;;;;;26.98;16.38;;;;;;;16.40;53.53;102432.13;5066877;28;20052;-68
2022/05/06 01:53:06;;;;;;;23.50;15.60;;;;;;;16.39;53.61;102440.47;5080860;28;20041;-70
2022/05/06 01:55:34;;;;;;;24.67;15.80;;;;;;;16.25;53.61;102418.88;5083824;28;20108;-74
2022/05/06 01:58:02;;;;;;;23.05;16.63;;;;;;;16.37;53.92;102445.31;5077251;28;20510;-73
2022/05/06 02:00:29;;;;;;;22.85;15.50;;;;;;;16.36;53.69;102452.59;5084560;28;20080;-73
2022/05/06 02:02:57;;;;;;;21.10;14.85;;;;;;;16.34;53.59;102445.75;5070387;28;20394;-73
2022/05/06 02:05:25;;;;;;;22.23;15.70;;;;;;;16.32;53.82;102443.25;5082269;28;20106;-73
2022/05/06 02:07:54;;;;;;;23.27;15.52;;;;;;;16.31;53.40;102443.47;5075837;28;20072;-68
2022/05/06 02:10:25;;;;;;;24.90;15.75;;;;;;;16.16;53.64;102420.22;5068967;28;20055;-68
2022/05/06 02:12:52;;;;;;;22.00;15.15;;;;;;;16.26;53.72;102444.97;5085738;28;20135;-68
2022/05/06 02:15:20;;;;;;;23.13;16.52;;;;;;;16.24;53.69;102443.53;5077867;28;20060;-68
2022/05/06 02:17:48;;;;;;;21.23;15.43;;;;;;;16.20;53.70;102439.59;5086356;28;20059;-69
2022/05/06 02:20:16;;;;;;;24.63;16.38;;;;;;;16.18;53.63;102434.38;5086318;28;20060;-69
2022/05/06 02:22:45;;;;;;;24.15;15.48;;;;;;;16.17;53.82;102442.75;5072878;28;20056;-69
2022/05/06 02:25:13;;;;;;;23.55;15.18;;;;;;;16.13;53.87;102439.63;5076482;28;20049;-68
2022/05/06 02:27:42;;;;;;;24.42;15.35;;;;;;;16.11;53.98;102436.31;5076114;28;20049;-69
2022/05/06 02:33:14;;;;;;;21.30;14.98;;;;;;;16.07;53.75;102437.81;5084396;28;20083;-69
2022/05/06 02:35:43;;;;;;;22.63;14.52;;;;;;;15.99;53.81;102424.50;5085651;28;20512;-68
2022/05/06 02:38:12;;;;;;;23.75;15.82;;;;;;;16.04;54.05;102440.13;5077329;28;20117;-68
2022/05/06 02:40:40;;;;;;;23.73;16.15;;;;;;;15.98;54.32;102438.28;5082547;28;20052;-68
2022/05/06 02:43:09;;;;;;;24.10;16.50;;;;;;;15.98;54.66;102441.00;5076633;28;20132;-68
2022/05/06 02:45:37;;;;;;;24.85;16.45;;;;;;;15.92;54.55;102446.25;5081578;28;20064;-68
2022/05/06 02:48:06;;;;;;;24.38;17.38;;;;;;;15.88;54.47;102441.47;5073982;28;20456;-68
2022/05/06 02:50:34;;;;;;;26.60;18.20;;;;;;;15.87;54.60;102446.06;5081776;28;20060;-69
2022/05/06 02:53:02;;;;;;;25.77;17.30;;;;;;;15.83;54.69;102452.97;5082029;28;20064;-69
2022/05/06 02:55:30;;;;;;;28.17;17.30;;;;;;;15.83;54.96;102450.25;5074745;28;20077;-68
2022/05/06 02:57:58;;;;;;;26.52;18.77;;;;;;;15.79;55.05;102443.63;5080427;28;20059;-68
2022/05/06 03:00:28;;;;;;;25.80;17.58;;;;;;;15.79;54.74;102442.78;5083195;28;20508;-68
2022/05/06 03:02:56;;;;;;;24.83;17.15;;;;;;;15.79;55.14;102453.63;5068647;28;20048;-68
2022/05/06 03:05:24;;;;;;;25.73;17.77;;;;;;;15.76;55.05;102452.19;5079665;28;20171;-68
2022/05/06 03:07:52;;;;;;;27.00;18.60;;;;;;;15.75;55.26;102449.69;5077510;28;20072;-68
2022/05/06 03:10:20;;;;;;;23.85;17.50;;;;;;;15.72;55.50;102447.41;5083199;28;20489;-67
2022/05/06 03:12:47;;;;;;;26.73;17.13;;;;;;;15.66;55.77;102451.81;5084552;28;20088;-68
2022/05/06 03:15:16;;;;;;;26.20;17.67;;;;;;;15.62;55.66;102446.00;5076709;28;20455;-68
2022/05/06 03:17:45;;;;;;;22.08;16.60;;;;;;;15.60;55.35;102445.38;5079514;28;20048;-68
2022/05/06 03:20:13;;;;;;;21.55;15.82;;;;;;;15.62;55.17;102450.59;5085471;28;20060;-67
2022/05/06 03:22:45;;;;;;;22.08;16.15;;;;;;;15.60;55.42;102445.38;5072605;28;20072;-67
2022/05/06 03:25:14;;;;;;;24.13;16.67;;;;;;;15.59;55.25;102449.16;5078957;28;20060;-68
2022/05/06 03:28:02;;;;;;;22.48;15.65;;;;;;;15.53;55.16;102438.34;5077009;28;20048;-68
2022/05/06 03:30:37;;;;;;;20.13;13.75;;;;;;;15.58;55.22;102443.97;5080390;28;20049;-68
2022/05/06 03:33:08;;;;;;;22.90;15.82;;;;;;;15.57;54.89;102447.72;5075615;28;20108;-68
2022/05/06 03:35:36;;;;;;;18.98;13.48;;;;;;;15.58;54.79;102447.50;5076843;28;20489;-68
2022/05/06 03:38:05;;;;;;;24.60;14.75;;;;;;;15.59;54.60;102448.34;5073389;28;20049;-68
2022/05/06 03:40:33;;;;;;;20.60;13.98;;;;;;;15.59;54.61;102448.34;5080447;28;20048;-68
2022/05/06 03:43:01;;;;;;;21.58;15.55;;;;;;;15.58;54.67;102450.22;5073115;28;20067;-68
2022/05/06 03:45:29;;;;;;;20.85;14.93;;;;;;;15.57;54.97;102447.72;5072073;28;20083;-67
2022/05/06 03:47:58;;;;;;;21.33;14.95;;;;;;;15.52;55.03;102450.22;5075762;28;20056;-68
2022/05/06 03:53:13;;;;;;;19.30;14.13;;;;;;;15.50;54.95;102458.56;5073810;28;20037;-68
2022/05/06 03:55:42;;;;;;;19.23;13.93;;;;;;;15.48;54.70;102449.81;5079919;28;20045;-68
2022/05/06 03:58:10;;;;;;;18.63;12.73;;;;;;;15.48;54.89;102454.41;5075246;28;20044;-68
2022/05/06 04:00:38;;;;;;;20.98;14.23;;;;;;;15.46;54.83;102451.06;5077371;28;20485;-68
2022/05/06 04:03:05;;;;;;;18.38;13.40;;;;;;;15.48;54.64;102457.13;5074037;28;20158;-68
2022/05/06 04:05:35;;;;;;;17.02;13.00;;;;;;;15.46;54.58;102451.91;5075738;28;20230;-68
2022/05/06 04:08:03;;;;;;;19.80;13.40;;;;;;;15.46;54.63;102457.31;5069878;28;20137;-68
2022/05/06 04:10:31;;;;;;;20.30;14.27;;;;;;;15.45;54.92;102462.97;5072732;28;20052;-69
2022/05/06 04:12:59;;;;;;;20.13;14.27;;;;;;;15.44;54.74;102466.72;5075300;28;20166;-68
2022/05/06 04:15:26;;;;;;;21.45;13.85;;;;;;;15.42;55.06;102466.94;5075437;28;20121;-68
2022/05/06 04:17:54;;;;;;;20.80;14.48;;;;;;;15.39;54.88;102464.66;5072100;28;20093;-68
2022/05/06 04:25:55;;;;;;;19.10;14.65;;;;;;;15.29;55.18;102467.81;5068711;28;20136;-68
2022/05/06 04:28:23;;;;;;;21.10;14.90;;;;;;;15.34;55.34;102469.88;5084056;28;20126;-68
2022/05/06 04:30:51;;;;;;;19.55;14.07;;;;;;;15.33;55.32;102465.50;5073321;28;20060;-68
2022/05/06 04:33:19;;;;;;;19.65;14.48;;;;;;;15.32;55.08;102471.13;5069567;28;20053;-68
2022/05/06 04:35:48;;;;;;;20.05;14.23;;;;;;;15.33;54.86;102470.94;5074031;28;20117;-68
2022/05/06 04:38:17;;;;;;;20.30;13.50;;;;;;;15.26;54.94;102468.25;5071510;28;20044;-68
2022/05/06 04:40:45;;;;;;;19.70;13.35;;;;;;;15.32;54.88;102479.25;5083933;28;20076;-68
2022/05/06 04:43:13;;;;;;;17.65;13.18;;;;;;;15.31;54.77;102475.72;5075186;28;20044;-69
2022/05/06 04:45:43;;;;;;;19.10;13.13;;;;;;;15.27;55.21;102469.91;5073730;28;20091;-68
2022/05/06 04:48:12;;;;;;;18.60;12.63;;;;;;;15.29;55.15;102488.66;5067383;28;20420;-68
2022/05/06 04:50:40;;;;;;;17.83;12.68;;;;;;;15.28;55.32;102485.09;5082980;28;20059;-68
2022/05/06 04:53:10;;;;;;;17.30;13.00;;;;;;;15.26;55.40;102491.78;5065932;28;20077;-68
2022/05/06 04:55:41;;;;;;;18.13;12.80;;;;;;;15.26;55.33;102491.78;5077530;28;20045;-68
2022/05/06 04:58:09;;;;;;;17.05;12.25;;;;;;;15.26;55.49;102499.91;5076111;28;20102;-68
2022/05/06 05:00:37;;;;;;;15.15;10.90;;;;;;;15.24;55.14;102494.72;5076126;28;20557;-68
2022/05/06 05:03:05;;;;;;;14.27;10.25;;;;;;;15.24;55.03;102496.59;5070819;28;20466;-68
2022/05/06 05:05:33;;;;;;;15.23;10.60;;;;;;;15.23;54.80;102503.03;5070816;28;20048;-67
2022/05/06 05:08:00;;;;;;;12.60;9.52;;;;;;;15.24;54.97;102502.00;5070410;28;20052;-67
2022/05/06 05:10:28;;;;;;;16.20;10.43;;;;;;;15.23;54.99;102506.59;5072237;28;20125;-68
2022/05/06 05:12:57;;;;;;;14.98;10.25;;;;;;;15.22;55.12;102504.91;5070275;28;20044;-68
2022/05/06 05:15:25;;;;;;;15.52;11.15;;;;;;;15.21;55.21;102510.56;5066911;28;20053;-67
2022/05/06 05:17:53;;;;;;;13.18;10.10;;;;;;;15.20;55.14;102506.19;5076601;28;20060;-68
2022/05/06 05:20:20;;;;;;;13.38;10.10;;;;;;;15.18;54.83;102510.97;5082510;28;20052;-69
2022/05/06 05:22:48;;;;;;;11.98;8.85;;;;;;;15.13;55.17;102503.47;5083265;28;20076;-66
2022/05/06 05:25:16;;;;;;;15.35;10.73;;;;;;;15.17;54.88;102512.00;5068325;28;20079;-67
2022/05/06 05:27:44;;;;;;;13.45;9.65;;;;;;;15.17;54.88;102506.59;5072997;28;20045;-67
2022/05/06 05:30:13;;;;;;;12.57;9.27;;;;;;;15.15;54.72;102508.69;5069314;28;20045;-67
2022/05/06 05:32:41;;;;;;;12.35;9.52;;;;;;;15.14;54.93;102509.72;5067549;28;20191;-69
2022/05/06 05:35:09;;;;;;;14.10;10.10;;;;;;;15.13;54.91;102518.91;5069588;28;20095;-69
2022/05/06 05:37:37;;;;;;;13.43;10.02;;;;;;;15.00;55.02;102494.56;5070205;28;20056;-67
2022/05/06 05:40:06;;;;;;;13.98;9.98;;;;;;;15.07;54.77;102509.75;5083343;28;20154;-69
2022/05/06 05:42:34;;;;;;;14.32;10.43;;;;;;;15.08;55.42;102516.00;5070770;28;20044;-70
2022/05/06 05:50:45;;;;;;;13.98;10.48;;;;;;;15.03;55.56;102519.34;5019689;28;20049;-67
2022/05/06 05:53:13;;;;;;;14.13;10.15;;;;;;;15.03;55.50;102511.22;4672919;28;10000581;-68
2022/05/06 05:55:41;;;;;;;13.38;10.23;;;;;;;15.02;55.55;102512.25;5032605;28;20065;-67
2022/05/06 05:58:08;;;;;;;13.93;10.20;;;;;;;15.04;55.43;102517.47;5021579;28;20163;-68
2022/05/06 06:00:37;;;;;;;13.52;9.93;;;;;;;15.02;55.87;102514.97;5020067;28;20168;-69
2022/05/06 06:03:06;;;;;;;15.35;11.45;;;;;;;15.00;56.04;102519.75;5019966;28;20239;-68
2022/05/06 06:05:34;;;;;;;16.38;11.35;;;;;;;15.02;55.91;102524.97;5022479;28;20188;-67
2022/05/06 06:08:02;;;;;;;17.60;12.48;;;;;;;14.97;56.41;102521.00;5022007;28;20091;-67
2022/05/06 06:10:29;;;;;;;15.68;11.90;;;;;;;14.98;56.11;102524.53;5031484;28;20108;-68
2022/05/06 06:12:57;;;;;;;15.85;11.93;;;;;;;14.97;55.88;102517.47;5032820;28;20471;-68
2022/05/06 06:15:25;;;;;;;14.20;10.55;;;;;;;14.98;55.55;102519.13;5033241;28;20109;-69
2022/05/06 06:17:53;;;;;;;14.10;11.18;;;;;;;14.98;55.73;102511.84;5026158;28;20136;-67
2022/05/06 06:20:23;;;;;;;13.02;9.98;;;;;;;14.97;55.71;102520.16;5030671;28;20057;-67
2022/05/06 06:22:51;;;;;;;14.48;9.38;;;;;;;15.00;55.76;102510.78;5061939;28;20072;-70
2022/05/06 06:25:19;;;;;;;14.95;10.55;;;;;;;15.00;56.18;102525.16;5072250;28;20052;-67
2022/05/06 06:27:47;;;;;;;17.20;10.88;;;;;;;15.02;55.90;102508.72;5071999;28;20198;-71
2022/05/06 06:30:15;;;;;;;17.45;11.02;;;;;;;15.02;55.84;102509.53;5060389;28;20411;-71
2022/05/06 06:32:51;;;;;;;15.57;10.88;;;;;;;14.92;56.01;102492.91;5060616;28;20423;-68
2022/05/06 06:35:19;;;;;;;15.13;10.73;;;;;;;15.03;56.03;102518.50;5061631;28;20068;-69
2022/05/06 06:37:49;;;;;;;14.95;11.02;;;;;;;15.01;55.83;102509.75;5063289;28;20048;-70
2022/05/06 06:40:17;;;;;;;15.40;11.80;;;;;;;15.03;55.84;102507.66;5069088;28;20071;-69
2022/05/06 06:42:46;;;;;;;15.02;10.55;;;;;;;15.04;56.08;102512.03;5065723;28;20063;-68
2022/05/06 06:45:13;;;;;;;14.30;10.75;;;;;;;15.02;55.94;102512.25;5073684;28;20457;-69
2022/05/06 06:47:41;;;;;;;14.88;10.77;;;;;;;15.05;55.89;102522.66;5063920;28;20049;-67
2022/05/06 06:50:09;;;;;;;14.30;10.98;;;;;;;15.04;55.73;102531.81;5065838;28;20048;-66
2022/05/06 06:52:37;;;;;;;15.80;10.32;;;;;;;15.04;55.86;102533.69;5063115;28;20113;-67
2022/05/06 06:55:07;;;;;;;16.00;10.98;;;;;;;15.05;55.89;102535.38;5060614;28;20116;-67
2022/05/06 06:57:35;;;;;;;17.05;10.90;;;;;;;15.04;55.83;102526.41;5077866;28;20489;-67
2022/05/06 07:00:04;;;;;;;14.43;10.48;;;;;;;15.04;55.75;102534.53;5076265;28;20132;-67
2022/05/06 07:02:37;;;;;;;14.52;10.40;;;;;;;15.05;55.99;102543.50;5066246;28;20083;-67
2022/05/06 07:05:05;;;;;;;17.23;11.13;;;;;;;15.02;55.87;102530.38;5071648;28;20616;-66
2022/05/06 07:13:34;;;;;;;14.80;10.50;;;;;;;15.04;55.93;102548.06;5030786;28;20057;-67
2022/05/06 07:16:01;;;;;;;16.52;11.50;;;;;;;15.05;56.04;102551.63;5026617;28;20108;-72
2022/05/06 07:18:29;;;;;;;15.07;11.02;;;;;;;15.03;55.78;102551.00;5028288;28;20112;-73
2022/05/06 07:20:57;;;;;;;15.32;11.35;;;;;;;15.05;56.33;102554.31;5024093;28;21911;-67
2022/05/06 07:23:25;;;;;;;16.52;10.93;;;;;;;14.94;56.17;102537.66;5022848;28;20085;-70
2022/05/06 07:25:54;;;;;;;14.20;10.80;;;;;;;15.06;56.04;102564.94;5028699;28;20572;-71
2022/05/06 07:28:22;;;;;;;13.98;10.73;;;;;;;15.06;56.17;102564.94;5027678;28;20088;-72
2022/05/06 07:30:49;;;;;;;13.45;10.60;;;;;;;15.05;56.13;102563.28;5027998;28;20060;-72
2022/05/06 07:33:17;;;;;;;15.07;10.27;;;;;;;15.07;55.91;102566.59;5028329;28;20063;-70
2022/05/06 07:35:45;;;;;;;13.73;10.88;;;;;;;15.07;56.13;102565.78;5037138;28;20042;-71
2022/05/06 07:38:13;;;;;;;17.10;11.75;;;;;;;15.07;56.79;102565.78;5026935;28;20053;-71
2022/05/06 07:40:41;;;;;;;15.10;10.80;;;;;;;15.06;56.46;102573.06;5031568;28;20117;-70
2022/05/06 07:43:13;;;;;;;14.77;10.77;;;;;;;15.04;56.32;102561.63;5032418;28;20054;-70
2022/05/06 07:45:41;;;;;;;15.18;10.73;;;;;;;15.08;56.22;102570.16;5033047;28;20084;-70
2022/05/06 07:48:10;;;;;;;17.73;10.93;;;;;;;15.06;56.42;102573.06;5039534;28;20045;-69
2022/05/06 07:50:38;;;;;;;17.55;13.27;;;;;;;15.08;56.22;102578.28;5078186;28;20139;-74
2022/05/06 07:53:06;;;;;;;20.00;11.90;;;;;;;15.08;56.98;102583.69;5071384;28;20067;-68
2022/05/06 07:55:35;;;;;;;18.45;12.80;;;;;;;15.07;57.22;102580.16;5072201;28;20802;-68
2022/05/06 07:58:04;;;;;;;17.40;12.57;;;;;;;15.08;56.86;102583.69;5067769;28;20044;-68
2022/05/06 08:00:34;;;;;;;18.92;14.40;;;;;;;15.06;57.78;102585.78;5070319;28;20075;-67
2022/05/06 08:05:49;;;;;;;20.70;15.07;;;;;;;14.97;58.04;102585.16;5078004;28;20045;-67
2022/05/06 08:08:17;;;;;;;21.52;15.18;;;;;;;15.02;58.13;102588.06;5079559;28;20052;-68
2022/05/06 08:10:45;;;;;;;20.55;14.20;;;;;;;15.02;58.04;102585.34;5075698;28;20068;-67
2022/05/06 08:13:13;;;;;;;24.45;15.45;;;;;;;15.04;58.13;102604.09;5068250;28;20064;-67
2022/05/06 08:15:44;;;;;;;23.33;16.25;;;;;;;15.02;58.46;102603.47;5075782;28;20124;-67
2022/05/06 08:18:12;;;;;;;22.20;15.57;;;;;;;15.00;58.70;102594.72;5074799;28;20192;-67
2022/05/06 08:20:41;;;;;;;23.75;16.95;;;;;;;15.00;58.56;102600.97;5076241;28;20052;-68
2022/05/06 08:23:09;;;;;;;25.30;17.83;;;;;;;14.97;59.32;102604.94;5071173;28;20045;-68
2022/05/06 08:25:38;;;;;;;24.10;17.33;;;;;;;14.96;58.94;102599.72;5080212;28;20048;-68
2022/05/06 08:28:07;;;;;;;22.65;16.35;;;;;;;14.96;58.67;102599.72;5070816;28;20620;-68
2022/05/06 08:30:35;;;;;;;25.23;16.77;;;;;;;14.97;58.60;102596.81;5073886;28;20406;-68
2022/05/06 08:33:05;;;;;;;24.95;17.48;;;;;;;15.01;58.88;102585.56;5069965;28;20048;-67
2022/05/06 08:35:33;;;;;;;26.77;17.70;;;;;;;14.96;58.75;102581.59;5073247;28;20045;-68
2022/05/06 08:38:01;;;;;;;26.20;18.02;;;;;;;15.01;58.85;102586.41;5073720;28;20041;-67
2022/05/06 08:40:30;;;;;;;23.58;17.13;;;;;;;15.02;59.30;102587.22;5076114;28;20059;-67
2022/05/06 08:42:58;;;;;;;22.45;15.65;;;;;;;15.02;58.74;102587.22;5070829;28;21366;-67
2022/05/06 08:51:05;;;;;;;24.67;16.23;;;;;;;15.07;58.40;102582.84;5075658;28;20044;-66
2022/05/06 08:53:35;;;;;;;21.65;15.20;;;;;;;15.09;58.30;102579.94;5075663;28;20044;-68
2022/05/06 08:56:04;;;;;;;24.52;15.95;;;;;;;15.10;58.11;102568.91;5068721;28;20113;-67
2022/05/06 08:58:36;;;;;;;23.85;15.88;;;;;;;15.13;58.29;102575.78;5071699;28;20052;-67
2022/05/06 09:01:06;;;;;;;21.27;15.45;;;;;;;15.13;58.08;102573.91;5075487;28;20385;-67
2022/05/06 09:03:44;;;;;;;23.67;14.23;;;;;;;15.13;57.70;102571.19;5065778;28;20071;-67
2022/05/06 09:06:18;;;;;;;20.80;14.95;;;;;;;15.17;57.75;102568.88;5075436;28;20047;-67
2022/05/06 09:08:46;;;;;;;23.23;15.75;;;;;;;15.18;57.55;102578.69;5065697;28;20045;-67
2022/05/06 09:11:17;;;;;;;21.98;14.15;;;;;;;15.20;57.83;102573.88;5066369;28;20127;-67
2022/05/06 09:13:53;;;;;;;22.83;15.50;;;;;;;15.07;57.75;102542.25;5067193;28;20053;-67
2022/05/06 09:16:40;;;;;;;22.33;15.73;;;;;;;15.22;57.17;102567.22;5070939;28;20083;-68
2022/05/06 09:19:20;;;;;;;23.38;15.25;;;;;;;15.24;57.75;102567.84;5068273;28;20067;-68
2022/05/06 09:22:03;;;;;;;19.50;13.90;;;;;;;15.26;56.94;102570.34;5070765;28;20066;-68
2022/05/06 09:24:31;;;;;;;20.00;14.38;;;;;;;15.28;57.00;102566.38;5066265;28;20102;-68
2022/05/06 09:27:01;;;;;;;20.75;14.10;;;;;;;15.30;57.27;102556.16;5069649;28;20040;-68
2022/05/06 09:29:30;;;;;;;23.70;15.10;;;;;;;15.31;57.63;102559.69;5068540;28;20045;-67
2022/05/06 09:32:14;;;;;;;20.17;13.95;;;;;;;15.32;57.53;102558.66;5075366;28;20079;-67
2022/05/06 09:34:44;;;;;;;19.85;12.52;;;;;;;15.38;57.53;102557.81;5080742;28;20076;-67
2022/05/06 09:37:12;;;;;;;16.45;12.57;;;;;;;15.43;58.20;102555.31;5076957;28;20123;-67
2022/05/06 09:39:40;;;;;;;17.02;11.10;;;;;;;15.49;57.68;102549.03;5068298;28;20148;-66
2022/05/06 09:42:08;;;;;;;16.77;11.00;;;;;;;15.52;57.73;102545.06;5074104;28;20078;-67
2022/05/06 09:44:36;;;;;;;18.60;12.77;;;;;;;15.57;57.87;102548.00;5072821;28;20056;-68
2022/05/06 09:47:10;;;;;;;17.95;11.57;;;;;;;15.57;58.20;102550.72;5076403;28;20072;-68
2022/05/06 09:49:40;;;;;;;17.33;11.88;;;;;;;15.60;57.27;102547.56;5078675;28;20121;-68
2022/05/06 09:52:14;;;;;;;19.90;12.88;;;;;;;15.60;57.41;102551.06;5074269;28;20060;-68
2022/05/06 09:54:46;;;;;;;16.55;12.20;;;;;;;15.48;57.18;102525.69;5078937;28;20637;-68
2022/05/06 09:57:15;;;;;;;15.10;10.95;;;;;;;15.62;57.43;102543.56;5071810;28;20049;-68
2022/05/06 09:59:43;;;;;;;15.50;11.93;;;;;;;15.63;57.04;102544.41;5078630;28;20079;-68
2022/05/06 10:02:11;;;;;;;21.02;14.10;;;;;;;15.65;57.74;102546.91;5070412;28;20048;-68
2022/05/06 10:04:40;;;;;;;19.38;12.95;;;;;;;15.63;57.56;102539.81;5078101;28;20266;-68
2022/05/06 10:07:11;;;;;;;16.75;11.90;;;;;;;15.66;57.56;102543.13;5078507;28;20041;-68
2022/05/06 10:09:45;;;;;;;18.20;12.23;;;;;;;15.71;58.38;102541.44;5069637;28;20095;-68
2022/05/06 10:12:16;;;;;;;17.33;11.88;;;;;;;15.73;57.40;102530.41;5068433;28;20676;-68
2022/05/06 10:14:45;;;;;;;14.73;11.18;;;;;;;15.74;57.57;102538.31;5071320;28;20067;-68
2022/05/06 10:17:13;;;;;;;20.55;13.55;;;;;;;15.74;57.74;102535.59;5071205;28;20518;-68
2022/05/06 10:19:47;;;;;;;17.02;12.55;;;;;;;15.77;58.00;102531.63;5071071;28;20056;-68
2022/05/06 10:22:15;;;;;;;19.05;13.05;;;;;;;15.81;58.18;102536.41;5079507;28;20087;-68
2022/05/06 10:24:49;;;;;;;17.73;12.68;;;;;;;15.83;58.43;102536.19;5083048;28;20052;-68
2022/05/06 10:32:25;;;;;;;15.52;10.98;;;;;;;15.86;57.65;102539.31;5079094;28;20075;-68
2022/05/06 10:33:15;;;;;;;14.40;10.15;;;;;;;15.95;57.84;102531.75;5065384;28;20083;-67
2022/05/06 10:35:44;;;;;;;16.40;10.98;;;;;;;15.99;58.70;102532.16;5066965;28;20041;-67
2022/05/06 10:38:24;;;;;;;15.80;10.50;;;;;;;16.04;57.66;102519.59;5068436;28;20107;-67
2022/05/06 10:40:59;;;;;;;15.20;11.00;;;;;;;16.06;57.44;102512.09;5067669;28;20055;-68
2022/05/06 10:43:50;;;;;;;15.57;10.77;;;;;;;16.24;58.20;102514.88;5073372;28;20227;-67
2022/05/06 10:46:36;;;;;;;13.85;9.90;;;;;;;16.22;58.54;102489.03;5077066;28;20072;-67
2022/05/06 10:49:47;;;;;;;13.35;9.63;;;;;;;16.37;58.64;102502.28;5080735;28;20080;-65
2022/05/06 10:52:54;;;;;;;16.80;10.75;;;;;;;16.37;57.99;102508.53;5074429;28;20079;-65
2022/05/06 10:55:23;;;;;;;14.30;9.98;;;;;;;16.39;57.28;102501.00;5081579;28;20045;-66
2022/05/06 10:58:04;;;;;;;13.70;8.95;;;;;;;16.40;57.17;102499.97;5071082;28;20052;-68
2022/05/06 11:00:37;;;;;;;12.98;8.35;;;;;;;16.44;57.29;102497.63;5067369;28;20167;-68
2022/05/06 11:03:05;;;;;;;14.90;8.55;;;;;;;16.49;58.42;102482.34;5064700;28;20058;-69
2022/05/06 11:05:33;;;;;;;15.25;8.68;;;;;;;16.48;58.50;102482.56;5075976;28;20116;-69
2022/05/06 11:08:04;;;;;;;13.10;8.55;;;;;;;16.71;58.16;102495.56;5073705;28;20093;-65
2022/05/06 11:10:34;;;;;;;12.77;9.27;;;;;;;16.73;57.62;102504.31;5077398;28;20513;-66
2022/05/06 11:13:26;;;;;;;10.77;7.97;;;;;;;16.76;57.02;102483.00;5071205;28;20052;-66
2022/05/06 11:15:55;;;;;;;11.20;8.23;;;;;;;16.80;56.89;102483.38;5071027;28;20052;-66
2022/05/06 11:18:24;;;;;;;10.52;7.35;;;;;;;16.75;56.62;102473.19;5071104;28;20052;-66
2022/05/06 11:20:52;;;;;;;11.50;7.82;;;;;;;16.90;57.00;102487.25;5067289;28;20045;-66
2022/05/06 11:23:20;;;;;;;10.65;7.82;;;;;;;16.99;57.92;102471.47;5072190;28;20091;-66
2022/05/06 11:25:50;;;;;;;14.32;8.10;;;;;;;17.04;57.75;102473.53;5071948;28;20066;-67
2022/05/06 11:28:20;;;;;;;10.70;7.55;;;;;;;17.20;57.37;102483.78;5073560;28;20063;-67
2022/05/06 11:30:50;;;;;;;12.68;7.03;;;;;;;17.35;57.10;102472.53;5066509;28;20075;-66
2022/05/06 11:33:24;;;;;;;11.60;7.15;;;;;;;17.35;56.69;102467.09;4714226;28;10000659;-66
2022/05/06 11:35:53;;;;;;;11.15;7.20;;;;;;;17.34;55.77;102465.41;5076927;28;20083;-65
2022/05/06 11:38:32;;;;;;;8.60;6.60;;;;;;;17.32;55.14;102468.41;5068018;28;20107;-66
2022/05/06 11:41:07;;;;;;;11.20;6.18;;;;;;;17.32;55.51;102462.97;5065377;28;20057;-65
2022/05/06 11:43:35;;;;;;;12.60;6.63;;;;;;;17.32;54.69;102465.69;5075677;28;20056;-66
2022/05/06 11:48:49;;;;;;;8.52;6.60;;;;;;;17.34;54.75;102452.66;5068382;28;20045;-65
2022/05/06 11:51:22;;;;;;;8.50;6.20;;;;;;;17.38;54.69;102451.16;5069516;28;20102;-66
2022/05/06 11:53:50;;;;;;;9.27;5.63;;;;;;;17.44;54.60;102449.41;5075176;28;20105;-65
2022/05/06 11:56:22;;;;;;;9.80;6.07;;;;;;;17.44;54.07;102446.69;5074991;28;20076;-65
2022/05/06 11:58:50;;;;;;;8.45;5.38;;;;;;;17.51;53.83;102450.16;5078217;28;20368;-66
2022/05/06 12:01:27;;;;;;;7.40;5.63;;;;;;;17.56;54.21;102448.41;5069118;28;20053;-66